sensor_id;sensor_type;location;lat;lon;timestamp;P1;durP1;ratioP1;P2;durP2;ratioP2
19869;SDS011;10097;50.862;4.696;2024-02-26T00:00:28;3.00;;;1.23;;
19869;SDS011;10097;50.862;4.696;2024-02-26T00:02:55;4.07;;;1.20;;
19869;SDS011;10097;50.862;4.696;2024-02-26T00:05:20;7.53;;;1.57;;
19869;SDS011;10097;50.862;4.696;2024-02-26T00:07:46;3.40;;;1.53;;
19869;SDS011;10097;50.862;4.696;2024-02-26T00:10:12;3.70;;;1.43;;
19869;SDS011;10097;50.862;4.696;2024-02-26T00:12:38;5.07;;;1.37;;
19869;SDS011;10097;50.862;4.696;2024-02-26T00:15:07;6.53;;;1.23;;
19869;SDS011;10097;50.862;4.696;2024-02-26T00:17:34;4.27;;;1.20;;
19869;SDS011;10097;50.862;4.696;2024-02-26T00:20:00;4.40;;;1.57;;
19869;SDS011;10097;50.862;4.696;2024-02-26T00:22:29;4.30;;;1.33;;
19869;SDS011;10097;50.862;4.696;2024-02-26T00:24:55;4.17;;;1.20;;
19869;SDS011;10097;50.862;4.696;2024-02-26T00:27:21;2.43;;;1.10;;
19869;SDS011;10097;50.862;4.696;2024-02-26T00:29:46;3.60;;;1.07;;
19869;SDS011;10097;50.862;4.696;2024-02-26T00:32:12;4.60;;;1.40;;
19869;SDS011;10097;50.862;4.696;2024-02-26T00:34:38;5.03;;;1.00;;
19869;SDS011;10097;50.862;4.696;2024-02-26T00:37:03;4.60;;;1.60;;
19869;SDS011;10097;50.862;4.696;2024-02-26T00:39:29;2.90;;;1.10;;
19869;SDS011;10097;50.862;4.696;2024-02-26T00:41:55;4.37;;;1.10;;
19869;SDS011;10097;50.862;4.696;2024-02-26T00:44:20;5.87;;;1.10;;
19869;SDS011;10097;50.862;4.696;2024-02-26T00:46:46;5.53;;;1.20;;
19869;SDS011;10097;50.862;4.696;2024-02-26T00:49:11;5.20;;;1.40;;
19869;SDS011;10097;50.862;4.696;2024-02-26T00:51:37;4.57;;;1.20;;
19869;SDS011;10097;50.862;4.696;2024-02-26T00:54:03;5.27;;;1.20;;
19869;SDS011;10097;50.862;4.696;2024-02-26T00:56:28;2.97;;;1.10;;
19869;SDS011;10097;50.862;4.696;2024-02-26T00:58:54;5.70;;;1.40;;
19869;SDS011;10097;50.862;4.696;2024-02-26T01:01:20;4.47;;;1.37;;
19869;SDS011;10097;50.862;4.696;2024-02-26T01:03:45;5.73;;;1.23;;
19869;SDS011;10097;50.862;4.696;2024-02-26T01:06:11;3.07;;;1.17;;
19869;SDS011;10097;50.862;4.696;2024-02-26T01:08:37;4.30;;;1.20;;
19869;SDS011;10097;50.862;4.696;2024-02-26T01:11:02;2.37;;;1.10;;
19869;SDS011;10097;50.862;4.696;2024-02-26T01:13:28;8.63;;;1.60;;
19869;SDS011;10097;50.862;4.696;2024-02-26T01:15:54;5.13;;;1.20;;
19869;SDS011;10097;50.862;4.696;2024-02-26T01:18:20;3.73;;;1.30;;
19869;SDS011;10097;50.862;4.696;2024-02-26T01:20:45;4.47;;;1.57;;
19869;SDS011;10097;50.862;4.696;2024-02-26T01:23:12;4.70;;;1.23;;
19869;SDS011;10097;50.862;4.696;2024-02-26T01:25:38;4.83;;;1.60;;
19869;SDS011;10097;50.862;4.696;2024-02-26T01:28:04;4.33;;;1.20;;
19869;SDS011;10097;50.862;4.696;2024-02-26T01:30:30;4.90;;;0.97;;
19869;SDS011;10097;50.862;4.696;2024-02-26T01:32:56;2.67;;;1.27;;
19869;SDS011;10097;50.862;4.696;2024-02-26T01:35:22;4.27;;;1.07;;
19869;SDS011;10097;50.862;4.696;2024-02-26T01:37:48;6.13;;;1.33;;
19869;SDS011;10097;50.862;4.696;2024-02-26T01:40:14;2.57;;;1.03;;
19869;SDS011;10097;50.862;4.696;2024-02-26T01:42:44;7.33;;;1.00;;
19869;SDS011;10097;50.862;4.696;2024-02-26T01:45:12;5.70;;;1.53;;
19869;SDS011;10097;50.862;4.696;2024-02-26T01:47:41;1.47;;;0.80;;
19869;SDS011;10097;50.862;4.696;2024-02-26T01:50:07;4.07;;;1.43;;
19869;SDS011;10097;50.862;4.696;2024-02-26T01:52:33;3.70;;;1.10;;
19869;SDS011;10097;50.862;4.696;2024-02-26T01:55:00;4.60;;;1.10;;
19869;SDS011;10097;50.862;4.696;2024-02-26T01:57:26;6.13;;;1.40;;
19869;SDS011;10097;50.862;4.696;2024-02-26T01:59:53;5.70;;;1.03;;
19869;SDS011;10097;50.862;4.696;2024-02-26T02:02:19;1.37;;;0.90;;
19869;SDS011;10097;50.862;4.696;2024-02-26T02:04:45;4.30;;;1.03;;
19869;SDS011;10097;50.862;4.696;2024-02-26T02:07:11;3.37;;;1.00;;
19869;SDS011;10097;50.862;4.696;2024-02-26T02:09:37;2.67;;;1.10;;
19869;SDS011;10097;50.862;4.696;2024-02-26T02:12:03;2.50;;;0.73;;
19869;SDS011;10097;50.862;4.696;2024-02-26T02:14:29;2.73;;;0.90;;
19869;SDS011;10097;50.862;4.696;2024-02-26T02:16:55;3.03;;;0.90;;
19869;SDS011;10097;50.862;4.696;2024-02-26T02:19:21;1.83;;;0.83;;
19869;SDS011;10097;50.862;4.696;2024-02-26T02:21:46;2.93;;;1.20;;
19869;SDS011;10097;50.862;4.696;2024-02-26T02:24:12;3.70;;;1.10;;
19869;SDS011;10097;50.862;4.696;2024-02-26T02:26:37;3.53;;;1.13;;
19869;SDS011;10097;50.862;4.696;2024-02-26T02:29:04;3.83;;;1.10;;
19869;SDS011;10097;50.862;4.696;2024-02-26T02:31:30;5.63;;;0.90;;
19869;SDS011;10097;50.862;4.696;2024-02-26T02:33:56;2.53;;;1.13;;
19869;SDS011;10097;50.862;4.696;2024-02-26T02:36:22;3.00;;;1.00;;
19869;SDS011;10097;50.862;4.696;2024-02-26T02:38:48;3.73;;;1.07;;
19869;SDS011;10097;50.862;4.696;2024-02-26T02:41:17;3.27;;;1.27;;
19869;SDS011;10097;50.862;4.696;2024-02-26T02:43:43;4.87;;;1.00;;
19869;SDS011;10097;50.862;4.696;2024-02-26T02:46:09;4.37;;;1.37;;
19869;SDS011;10097;50.862;4.696;2024-02-26T02:48:38;2.90;;;1.13;;
19869;SDS011;10097;50.862;4.696;2024-02-26T02:51:04;4.07;;;1.20;;
19869;SDS011;10097;50.862;4.696;2024-02-26T02:53:30;3.10;;;1.00;;
19869;SDS011;10097;50.862;4.696;2024-02-26T02:55:55;2.07;;;0.90;;
19869;SDS011;10097;50.862;4.696;2024-02-26T02:58:21;4.97;;;1.67;;
19869;SDS011;10097;50.862;4.696;2024-02-26T03:00:47;3.57;;;0.90;;
19869;SDS011;10097;50.862;4.696;2024-02-26T03:03:12;2.67;;;0.90;;
19869;SDS011;10097;50.862;4.696;2024-02-26T03:05:38;3.33;;;1.03;;
19869;SDS011;10097;50.862;4.696;2024-02-26T03:08:04;2.60;;;1.10;;
19869;SDS011;10097;50.862;4.696;2024-02-26T03:10:29;3.83;;;0.77;;
19869;SDS011;10097;50.862;4.696;2024-02-26T03:12:55;3.07;;;0.90;;
19869;SDS011;10097;50.862;4.696;2024-02-26T03:15:21;2.57;;;1.10;;
19869;SDS011;10097;50.862;4.696;2024-02-26T03:17:47;3.50;;;1.23;;
19869;SDS011;10097;50.862;4.696;2024-02-26T03:20:12;4.77;;;1.20;;
19869;SDS011;10097;50.862;4.696;2024-02-26T03:22:38;3.90;;;1.00;;
19869;SDS011;10097;50.862;4.696;2024-02-26T03:25:05;8.53;;;1.57;;
19869;SDS011;10097;50.862;4.696;2024-02-26T03:27:31;5.70;;;1.27;;
19869;SDS011;10097;50.862;4.696;2024-02-26T03:29:57;3.00;;;1.00;;
19869;SDS011;10097;50.862;4.696;2024-02-26T03:32:23;2.63;;;1.00;;
19869;SDS011;10097;50.862;4.696;2024-02-26T03:34:48;1.57;;;0.80;;
19869;SDS011;10097;50.862;4.696;2024-02-26T03:37:14;1.90;;;0.87;;
19869;SDS011;10097;50.862;4.696;2024-02-26T03:39:40;3.67;;;0.93;;
19869;SDS011;10097;50.862;4.696;2024-02-26T03:42:06;3.87;;;1.10;;
19869;SDS011;10097;50.862;4.696;2024-02-26T03:44:31;2.77;;;1.00;;
19869;SDS011;10097;50.862;4.696;2024-02-26T03:46:57;2.60;;;0.90;;
19869;SDS011;10097;50.862;4.696;2024-02-26T03:49:22;2.17;;;0.93;;
19869;SDS011;10097;50.862;4.696;2024-02-26T03:51:48;3.20;;;1.00;;
19869;SDS011;10097;50.862;4.696;2024-02-26T03:54:14;3.47;;;1.17;;
19869;SDS011;10097;50.862;4.696;2024-02-26T03:56:40;5.23;;;1.20;;
19869;SDS011;10097;50.862;4.696;2024-02-26T03:59:05;4.10;;;1.27;;
19869;SDS011;10097;50.862;4.696;2024-02-26T04:01:31;2.30;;;0.90;;
19869;SDS011;10097;50.862;4.696;2024-02-26T04:03:56;2.63;;;1.10;;
19869;SDS011;10097;50.862;4.696;2024-02-26T04:06:22;6.43;;;1.40;;
19869;SDS011;10097;50.862;4.696;2024-02-26T04:08:48;3.27;;;1.20;;
19869;SDS011;10097;50.862;4.696;2024-02-26T04:11:13;3.27;;;1.37;;
19869;SDS011;10097;50.862;4.696;2024-02-26T04:13:43;4.63;;;1.40;;
19869;SDS011;10097;50.862;4.696;2024-02-26T04:16:11;4.57;;;1.63;;
19869;SDS011;10097;50.862;4.696;2024-02-26T04:18:36;3.33;;;1.50;;
19869;SDS011;10097;50.862;4.696;2024-02-26T04:21:03;2.97;;;1.80;;
19869;SDS011;10097;50.862;4.696;2024-02-26T04:23:30;3.23;;;1.40;;
19869;SDS011;10097;50.862;4.696;2024-02-26T04:25:56;3.50;;;1.70;;
19869;SDS011;10097;50.862;4.696;2024-02-26T04:28:21;4.20;;;1.70;;
19869;SDS011;10097;50.862;4.696;2024-02-26T04:30:47;4.93;;;1.67;;
19869;SDS011;10097;50.862;4.696;2024-02-26T04:33:13;4.27;;;1.67;;
19869;SDS011;10097;50.862;4.696;2024-02-26T04:35:39;6.27;;;2.00;;
19869;SDS011;10097;50.862;4.696;2024-02-26T04:38:05;3.43;;;1.80;;
19869;SDS011;10097;50.862;4.696;2024-02-26T04:40:30;4.83;;;2.10;;
19869;SDS011;10097;50.862;4.696;2024-02-26T04:42:56;8.37;;;2.20;;
19869;SDS011;10097;50.862;4.696;2024-02-26T04:45:22;4.83;;;2.40;;
19869;SDS011;10097;50.862;4.696;2024-02-26T04:47:48;5.10;;;2.47;;
19869;SDS011;10097;50.862;4.696;2024-02-26T04:50:13;5.27;;;2.30;;
19869;SDS011;10097;50.862;4.696;2024-02-26T04:52:39;6.60;;;2.73;;
19869;SDS011;10097;50.862;4.696;2024-02-26T04:55:05;5.77;;;2.60;;
19869;SDS011;10097;50.862;4.696;2024-02-26T04:57:31;6.43;;;2.93;;
19869;SDS011;10097;50.862;4.696;2024-02-26T04:59:57;6.97;;;3.20;;
19869;SDS011;10097;50.862;4.696;2024-02-26T05:02:23;8.13;;;3.60;;
19869;SDS011;10097;50.862;4.696;2024-02-26T05:04:49;6.97;;;3.40;;
19869;SDS011;10097;50.862;4.696;2024-02-26T05:07:15;7.03;;;3.63;;
19869;SDS011;10097;50.862;4.696;2024-02-26T05:09:42;8.30;;;3.63;;
19869;SDS011;10097;50.862;4.696;2024-02-26T05:12:08;7.93;;;4.00;;
19869;SDS011;10097;50.862;4.696;2024-02-26T05:14:34;8.77;;;4.07;;
19869;SDS011;10097;50.862;4.696;2024-02-26T05:17:06;9.33;;;4.60;;
19869;SDS011;10097;50.862;4.696;2024-02-26T05:19:32;8.63;;;4.20;;
19869;SDS011;10097;50.862;4.696;2024-02-26T05:21:57;8.17;;;4.43;;
19869;SDS011;10097;50.862;4.696;2024-02-26T05:24:23;9.07;;;4.87;;
19869;SDS011;10097;50.862;4.696;2024-02-26T05:26:48;9.13;;;4.57;;
19869;SDS011;10097;50.862;4.696;2024-02-26T05:29:14;8.97;;;3.90;;
19869;SDS011;10097;50.862;4.696;2024-02-26T05:31:43;8.10;;;4.93;;
19869;SDS011;10097;50.862;4.696;2024-02-26T05:34:09;10.57;;;4.53;;
19869;SDS011;10097;50.862;4.696;2024-02-26T05:36:34;8.80;;;4.63;;
19869;SDS011;10097;50.862;4.696;2024-02-26T05:39:00;12.50;;;5.00;;
19869;SDS011;10097;50.862;4.696;2024-02-26T05:41:26;8.87;;;4.57;;
19869;SDS011;10097;50.862;4.696;2024-02-26T05:43:52;11.20;;;5.50;;
19869;SDS011;10097;50.862;4.696;2024-02-26T05:46:19;13.50;;;5.20;;
19869;SDS011;10097;50.862;4.696;2024-02-26T05:48:52;9.93;;;5.20;;
19869;SDS011;10097;50.862;4.696;2024-02-26T05:51:18;9.87;;;5.40;;
19869;SDS011;10097;50.862;4.696;2024-02-26T05:53:44;11.43;;;5.43;;
19869;SDS011;10097;50.862;4.696;2024-02-26T05:56:10;10.00;;;5.37;;
19869;SDS011;10097;50.862;4.696;2024-02-26T05:58:36;10.87;;;5.80;;
19869;SDS011;10097;50.862;4.696;2024-02-26T06:01:01;13.33;;;6.20;;
19869;SDS011;10097;50.862;4.696;2024-02-26T06:03:27;10.53;;;6.03;;
19869;SDS011;10097;50.862;4.696;2024-02-26T06:05:53;10.13;;;5.97;;
19869;SDS011;10097;50.862;4.696;2024-02-26T06:08:18;11.70;;;6.00;;
19869;SDS011;10097;50.862;4.696;2024-02-26T06:10:44;13.33;;;6.40;;
19869;SDS011;10097;50.862;4.696;2024-02-26T06:13:10;12.37;;;6.57;;
19869;SDS011;10097;50.862;4.696;2024-02-26T06:15:36;11.67;;;6.83;;
19869;SDS011;10097;50.862;4.696;2024-02-26T06:18:01;13.30;;;7.57;;
19869;SDS011;10097;50.862;4.696;2024-02-26T06:20:27;11.97;;;6.90;;
19869;SDS011;10097;50.862;4.696;2024-02-26T06:22:53;13.37;;;7.27;;
19869;SDS011;10097;50.862;4.696;2024-02-26T06:25:19;12.80;;;7.40;;
19869;SDS011;10097;50.862;4.696;2024-02-26T06:27:45;13.93;;;7.73;;
19869;SDS011;10097;50.862;4.696;2024-02-26T06:30:10;14.27;;;8.13;;
19869;SDS011;10097;50.862;4.696;2024-02-26T06:32:37;14.50;;;8.87;;
19869;SDS011;10097;50.862;4.696;2024-02-26T06:35:03;13.67;;;8.63;;
19869;SDS011;10097;50.862;4.696;2024-02-26T06:37:33;14.50;;;8.03;;
19869;SDS011;10097;50.862;4.696;2024-02-26T06:39:59;16.03;;;8.87;;
19869;SDS011;10097;50.862;4.696;2024-02-26T06:42:25;15.17;;;9.07;;
19869;SDS011;10097;50.862;4.696;2024-02-26T06:44:50;15.73;;;9.10;;
19869;SDS011;10097;50.862;4.696;2024-02-26T06:47:16;14.07;;;9.30;;
19869;SDS011;10097;50.862;4.696;2024-02-26T06:49:41;14.03;;;9.03;;
19869;SDS011;10097;50.862;4.696;2024-02-26T06:52:08;16.03;;;9.20;;
19869;SDS011;10097;50.862;4.696;2024-02-26T06:54:34;16.87;;;9.83;;
19869;SDS011;10097;50.862;4.696;2024-02-26T06:57:00;16.57;;;10.07;;
19869;SDS011;10097;50.862;4.696;2024-02-26T06:59:25;17.60;;;10.53;;
19869;SDS011;10097;50.862;4.696;2024-02-26T07:01:51;15.77;;;10.17;;
19869;SDS011;10097;50.862;4.696;2024-02-26T07:04:17;16.07;;;10.60;;
19869;SDS011;10097;50.862;4.696;2024-02-26T07:06:42;17.43;;;10.60;;
19869;SDS011;10097;50.862;4.696;2024-02-26T07:09:08;15.93;;;10.30;;
19869;SDS011;10097;50.862;4.696;2024-02-26T07:11:34;15.77;;;10.70;;
19869;SDS011;10097;50.862;4.696;2024-02-26T07:14:00;15.10;;;10.53;;
19869;SDS011;10097;50.862;4.696;2024-02-26T07:16:26;15.63;;;10.20;;
19869;SDS011;10097;50.862;4.696;2024-02-26T07:18:52;15.50;;;9.63;;
19869;SDS011;10097;50.862;4.696;2024-02-26T07:21:17;16.63;;;9.53;;
19869;SDS011;10097;50.862;4.696;2024-02-26T07:23:43;14.80;;;9.30;;
19869;SDS011;10097;50.862;4.696;2024-02-26T07:26:09;17.47;;;10.23;;
19869;SDS011;10097;50.862;4.696;2024-02-26T07:28:36;13.43;;;9.47;;
19869;SDS011;10097;50.862;4.696;2024-02-26T07:31:02;15.93;;;8.93;;
19869;SDS011;10097;50.862;4.696;2024-02-26T07:33:28;16.37;;;9.63;;
19869;SDS011;10097;50.862;4.696;2024-02-26T07:35:54;14.43;;;9.10;;
19869;SDS011;10097;50.862;4.696;2024-02-26T07:38:19;14.90;;;9.37;;
19869;SDS011;10097;50.862;4.696;2024-02-26T07:40:45;13.33;;;8.90;;
19869;SDS011;10097;50.862;4.696;2024-02-26T07:43:11;14.00;;;8.73;;
19869;SDS011;10097;50.862;4.696;2024-02-26T07:45:36;14.93;;;8.80;;
19869;SDS011;10097;50.862;4.696;2024-02-26T07:48:02;13.70;;;8.90;;
19869;SDS011;10097;50.862;4.696;2024-02-26T07:50:28;13.97;;;8.90;;
19869;SDS011;10097;50.862;4.696;2024-02-26T07:52:54;16.30;;;8.80;;
19869;SDS011;10097;50.862;4.696;2024-02-26T07:55:19;14.10;;;9.27;;
19869;SDS011;10097;50.862;4.696;2024-02-26T07:57:45;13.07;;;8.53;;
19869;SDS011;10097;50.862;4.696;2024-02-26T08:00:11;12.80;;;9.13;;
19869;SDS011;10097;50.862;4.696;2024-02-26T08:02:41;15.80;;;8.83;;
19869;SDS011;10097;50.862;4.696;2024-02-26T08:05:07;12.90;;;8.73;;
19869;SDS011;10097;50.862;4.696;2024-02-26T08:07:33;13.13;;;8.50;;
19869;SDS011;10097;50.862;4.696;2024-02-26T08:09:58;14.60;;;8.80;;
19869;SDS011;10097;50.862;4.696;2024-02-26T08:12:24;14.30;;;8.40;;
19869;SDS011;10097;50.862;4.696;2024-02-26T08:14:50;12.17;;;7.73;;
19869;SDS011;10097;50.862;4.696;2024-02-26T08:17:16;11.73;;;8.07;;
19869;SDS011;10097;50.862;4.696;2024-02-26T08:19:42;13.93;;;8.80;;
19869;SDS011;10097;50.862;4.696;2024-02-26T08:22:07;13.30;;;8.40;;
19869;SDS011;10097;50.862;4.696;2024-02-26T08:24:34;13.50;;;8.23;;
19869;SDS011;10097;50.862;4.696;2024-02-26T08:27:00;12.00;;;8.20;;
19869;SDS011;10097;50.862;4.696;2024-02-26T08:29:26;12.33;;;8.00;;
19869;SDS011;10097;50.862;4.696;2024-02-26T08:31:51;12.63;;;7.73;;
19869;SDS011;10097;50.862;4.696;2024-02-26T08:34:17;11.30;;;7.20;;
19869;SDS011;10097;50.862;4.696;2024-02-26T08:36:42;13.30;;;8.03;;
19869;SDS011;10097;50.862;4.696;2024-02-26T08:39:09;11.60;;;8.10;;
19869;SDS011;10097;50.862;4.696;2024-02-26T08:41:35;15.43;;;8.30;;
19869;SDS011;10097;50.862;4.696;2024-02-26T08:44:00;12.17;;;7.43;;
19869;SDS011;10097;50.862;4.696;2024-02-26T08:46:26;11.03;;;7.67;;
19869;SDS011;10097;50.862;4.696;2024-02-26T08:48:52;14.60;;;8.70;;
19869;SDS011;10097;50.862;4.696;2024-02-26T08:51:17;13.33;;;8.47;;
19869;SDS011;10097;50.862;4.696;2024-02-26T08:53:43;12.00;;;8.03;;
19869;SDS011;10097;50.862;4.696;2024-02-26T08:56:08;11.27;;;7.60;;
19869;SDS011;10097;50.862;4.696;2024-02-26T08:58:36;11.77;;;8.10;;
19869;SDS011;10097;50.862;4.696;2024-02-26T09:01:01;12.70;;;8.50;;
19869;SDS011;10097;50.862;4.696;2024-02-26T09:03:27;12.17;;;8.37;;
19869;SDS011;10097;50.862;4.696;2024-02-26T09:05:53;13.73;;;8.40;;
19869;SDS011;10097;50.862;4.696;2024-02-26T09:08:19;13.83;;;9.10;;
19869;SDS011;10097;50.862;4.696;2024-02-26T09:10:44;12.77;;;8.63;;
19869;SDS011;10097;50.862;4.696;2024-02-26T09:13:10;12.90;;;8.77;;
19869;SDS011;10097;50.862;4.696;2024-02-26T09:15:36;13.03;;;8.23;;
19869;SDS011;10097;50.862;4.696;2024-02-26T09:18:01;13.80;;;8.80;;
19869;SDS011;10097;50.862;4.696;2024-02-26T09:20:28;14.03;;;8.67;;
19869;SDS011;10097;50.862;4.696;2024-02-26T09:22:53;15.27;;;8.23;;
19869;SDS011;10097;50.862;4.696;2024-02-26T09:25:19;11.73;;;8.10;;
19869;SDS011;10097;50.862;4.696;2024-02-26T09:27:45;13.67;;;9.27;;
19869;SDS011;10097;50.862;4.696;2024-02-26T09:30:11;12.63;;;8.70;;
19869;SDS011;10097;50.862;4.696;2024-02-26T09:32:38;15.00;;;8.97;;
19869;SDS011;10097;50.862;4.696;2024-02-26T09:35:05;12.27;;;8.23;;
19869;SDS011;10097;50.862;4.696;2024-02-26T09:37:31;11.70;;;7.80;;
19869;SDS011;10097;50.862;4.696;2024-02-26T09:39:58;11.50;;;7.90;;
19869;SDS011;10097;50.862;4.696;2024-02-26T09:42:25;11.77;;;8.00;;
19869;SDS011;10097;50.862;4.696;2024-02-26T09:44:51;11.83;;;7.83;;
19869;SDS011;10097;50.862;4.696;2024-02-26T09:47:20;11.23;;;7.80;;
19869;SDS011;10097;50.862;4.696;2024-02-26T09:49:48;13.50;;;7.80;;
19869;SDS011;10097;50.862;4.696;2024-02-26T09:52:15;11.60;;;7.63;;
19869;SDS011;10097;50.862;4.696;2024-02-26T09:54:41;12.63;;;7.77;;
19869;SDS011;10097;50.862;4.696;2024-02-26T09:57:11;19.30;;;9.20;;
19869;SDS011;10097;50.862;4.696;2024-02-26T09:59:41;15.47;;;9.57;;
19869;SDS011;10097;50.862;4.696;2024-02-26T10:02:13;25.27;;;10.70;;
19869;SDS011;10097;50.862;4.696;2024-02-26T10:04:40;11.10;;;6.80;;
19869;SDS011;10097;50.862;4.696;2024-02-26T10:07:10;11.83;;;7.00;;
19869;SDS011;10097;50.862;4.696;2024-02-26T10:09:37;10.77;;;6.63;;
19869;SDS011;10097;50.862;4.696;2024-02-26T10:12:03;12.07;;;6.87;;
19869;SDS011;10097;50.862;4.696;2024-02-26T10:14:30;11.10;;;6.43;;
19869;SDS011;10097;50.862;4.696;2024-02-26T10:16:56;11.27;;;6.67;;
19869;SDS011;10097;50.862;4.696;2024-02-26T10:19:28;12.33;;;6.93;;
19869;SDS011;10097;50.862;4.696;2024-02-26T10:21:58;10.70;;;6.63;;
19869;SDS011;10097;50.862;4.696;2024-02-26T10:24:25;10.57;;;6.77;;
19869;SDS011;10097;50.862;4.696;2024-02-26T10:26:52;10.27;;;6.47;;
19869;SDS011;10097;50.862;4.696;2024-02-26T10:29:19;12.00;;;6.00;;
19869;SDS011;10097;50.862;4.696;2024-02-26T10:31:45;10.30;;;5.90;;
19869;SDS011;10097;50.862;4.696;2024-02-26T10:34:11;9.97;;;5.87;;
19869;SDS011;10097;50.862;4.696;2024-02-26T10:36:37;9.87;;;6.20;;
19869;SDS011;10097;50.862;4.696;2024-02-26T10:39:06;10.87;;;6.97;;
19869;SDS011;10097;50.862;4.696;2024-02-26T10:41:35;10.13;;;6.30;;
19869;SDS011;10097;50.862;4.696;2024-02-26T10:44:01;9.63;;;6.17;;
19869;SDS011;10097;50.862;4.696;2024-02-26T10:46:27;10.00;;;6.60;;
19869;SDS011;10097;50.862;4.696;2024-02-26T10:48:53;10.03;;;6.43;;
19869;SDS011;10097;50.862;4.696;2024-02-26T10:51:28;13.77;;;7.00;;
19869;SDS011;10097;50.862;4.696;2024-02-26T10:53:55;9.80;;;5.93;;
19869;SDS011;10097;50.862;4.696;2024-02-26T10:56:28;10.30;;;5.97;;
19869;SDS011;10097;50.862;4.696;2024-02-26T10:58:57;11.33;;;6.70;;
19869;SDS011;10097;50.862;4.696;2024-02-26T11:01:24;10.80;;;6.27;;
19869;SDS011;10097;50.862;4.696;2024-02-26T11:03:50;10.97;;;6.23;;
19869;SDS011;10097;50.862;4.696;2024-02-26T11:06:17;9.70;;;5.90;;
19869;SDS011;10097;50.862;4.696;2024-02-26T11:08:47;9.93;;;6.20;;
19869;SDS011;10097;50.862;4.696;2024-02-26T11:11:14;9.70;;;5.93;;
19869;SDS011;10097;50.862;4.696;2024-02-26T11:13:40;11.67;;;5.87;;
19869;SDS011;10097;50.862;4.696;2024-02-26T11:16:13;9.90;;;5.43;;
19869;SDS011;10097;50.862;4.696;2024-02-26T11:18:39;8.63;;;5.07;;
19869;SDS011;10097;50.862;4.696;2024-02-26T11:21:07;7.03;;;4.77;;
19869;SDS011;10097;50.862;4.696;2024-02-26T11:23:33;8.30;;;4.60;;
19869;SDS011;10097;50.862;4.696;2024-02-26T11:26:01;9.27;;;4.97;;
19869;SDS011;10097;50.862;4.696;2024-02-26T11:28:29;7.87;;;4.70;;
19869;SDS011;10097;50.862;4.696;2024-02-26T11:30:58;8.90;;;4.87;;
19869;SDS011;10097;50.862;4.696;2024-02-26T11:33:25;7.70;;;4.30;;
19869;SDS011;10097;50.862;4.696;2024-02-26T11:35:52;8.33;;;4.17;;
19869;SDS011;10097;50.862;4.696;2024-02-26T11:38:23;7.47;;;4.30;;
19869;SDS011;10097;50.862;4.696;2024-02-26T11:40:52;8.53;;;4.50;;
19869;SDS011;10097;50.862;4.696;2024-02-26T11:43:22;8.47;;;4.50;;
19869;SDS011;10097;50.862;4.696;2024-02-26T11:46:24;7.63;;;4.00;;
19869;SDS011;10097;50.862;4.696;2024-02-26T11:48:58;7.70;;;4.23;;
19869;SDS011;10097;50.862;4.696;2024-02-26T11:51:50;7.80;;;4.27;;
19869;SDS011;10097;50.862;4.696;2024-02-26T11:57:28;8.30;;;4.17;;
19869;SDS011;10097;50.862;4.696;2024-02-26T11:59:55;7.53;;;4.23;;
19869;SDS011;10097;50.862;4.696;2024-02-26T12:05:07;7.97;;;4.17;;
19869;SDS011;10097;50.862;4.696;2024-02-26T12:07:44;10.30;;;4.33;;
19869;SDS011;10097;50.862;4.696;2024-02-26T12:10:24;9.10;;;4.40;;
19869;SDS011;10097;50.862;4.696;2024-02-26T12:15:27;8.10;;;4.50;;
19869;SDS011;10097;50.862;4.696;2024-02-26T12:17:55;7.60;;;4.70;;
19869;SDS011;10097;50.862;4.696;2024-02-26T12:20:21;8.27;;;4.60;;
19869;SDS011;10097;50.862;4.696;2024-02-26T12:22:49;8.40;;;4.60;;
19869;SDS011;10097;50.862;4.696;2024-02-26T12:25:17;9.53;;;4.60;;
19869;SDS011;10097;50.862;4.696;2024-02-26T12:27:47;8.73;;;4.83;;
19869;SDS011;10097;50.862;4.696;2024-02-26T12:30:13;7.83;;;4.67;;
19869;SDS011;10097;50.862;4.696;2024-02-26T12:32:39;7.67;;;4.30;;
19869;SDS011;10097;50.862;4.696;2024-02-26T12:35:05;8.40;;;4.70;;
19869;SDS011;10097;50.862;4.696;2024-02-26T12:37:31;8.03;;;4.50;;
19869;SDS011;10097;50.862;4.696;2024-02-26T12:39:57;7.60;;;4.47;;
19869;SDS011;10097;50.862;4.696;2024-02-26T12:42:23;7.63;;;4.17;;
19869;SDS011;10097;50.862;4.696;2024-02-26T12:44:49;8.60;;;4.37;;
19869;SDS011;10097;50.862;4.696;2024-02-26T12:47:15;6.63;;;4.23;;
19869;SDS011;10097;50.862;4.696;2024-02-26T12:49:48;6.90;;;4.23;;
19869;SDS011;10097;50.862;4.696;2024-02-26T12:52:14;6.90;;;4.37;;
19869;SDS011;10097;50.862;4.696;2024-02-26T12:54:41;7.63;;;4.13;;
19869;SDS011;10097;50.862;4.696;2024-02-26T12:57:07;8.00;;;4.73;;
19869;SDS011;10097;50.862;4.696;2024-02-26T12:59:34;6.80;;;4.10;;
19869;SDS011;10097;50.862;4.696;2024-02-26T13:02:01;7.70;;;4.27;;
19869;SDS011;10097;50.862;4.696;2024-02-26T13:04:29;7.07;;;4.17;;
19869;SDS011;10097;50.862;4.696;2024-02-26T13:06:55;9.00;;;4.67;;
19869;SDS011;10097;50.862;4.696;2024-02-26T13:09:27;11.83;;;4.73;;
19869;SDS011;10097;50.862;4.696;2024-02-26T13:11:53;7.73;;;4.67;;
19869;SDS011;10097;50.862;4.696;2024-02-26T13:14:20;7.70;;;4.83;;
19869;SDS011;10097;50.862;4.696;2024-02-26T13:16:56;7.33;;;4.73;;
19869;SDS011;10097;50.862;4.696;2024-02-26T13:19:22;7.10;;;4.60;;
19869;SDS011;10097;50.862;4.696;2024-02-26T13:21:48;8.97;;;4.80;;
19869;SDS011;10097;50.862;4.696;2024-02-26T13:24:14;8.77;;;4.80;;
19869;SDS011;10097;50.862;4.696;2024-02-26T13:26:39;8.97;;;5.00;;
19869;SDS011;10097;50.862;4.696;2024-02-26T13:29:05;8.40;;;5.10;;
19869;SDS011;10097;50.862;4.696;2024-02-26T13:31:31;11.87;;;5.07;;
19869;SDS011;10097;50.862;4.696;2024-02-26T13:34:03;8.97;;;5.20;;
19869;SDS011;10097;50.862;4.696;2024-02-26T13:36:29;10.83;;;5.47;;
19869;SDS011;10097;50.862;4.696;2024-02-26T13:38:55;9.43;;;5.47;;
19869;SDS011;10097;50.862;4.696;2024-02-26T13:41:24;9.43;;;5.60;;
19869;SDS011;10097;50.862;4.696;2024-02-26T13:43:49;11.40;;;6.33;;
19869;SDS011;10097;50.862;4.696;2024-02-26T13:46:15;9.63;;;5.47;;
19869;SDS011;10097;50.862;4.696;2024-02-26T13:48:42;10.97;;;5.93;;
19869;SDS011;10097;50.862;4.696;2024-02-26T13:51:08;10.47;;;6.07;;
19869;SDS011;10097;50.862;4.696;2024-02-26T13:53:34;10.47;;;5.77;;
19869;SDS011;10097;50.862;4.696;2024-02-26T13:56:00;12.03;;;6.50;;
19869;SDS011;10097;50.862;4.696;2024-02-26T13:58:26;13.27;;;6.37;;
19869;SDS011;10097;50.862;4.696;2024-02-26T14:00:55;11.30;;;6.83;;
19869;SDS011;10097;50.862;4.696;2024-02-26T14:03:21;11.40;;;6.80;;
19869;SDS011;10097;50.862;4.696;2024-02-26T14:05:47;14.47;;;7.13;;
19869;SDS011;10097;50.862;4.696;2024-02-26T14:08:13;11.80;;;7.00;;
19869;SDS011;10097;50.862;4.696;2024-02-26T14:10:39;12.77;;;6.83;;
19869;SDS011;10097;50.862;4.696;2024-02-26T14:13:05;12.57;;;6.87;;
19869;SDS011;10097;50.862;4.696;2024-02-26T14:15:31;11.37;;;7.40;;
19869;SDS011;10097;50.862;4.696;2024-02-26T14:17:57;13.70;;;7.83;;
19869;SDS011;10097;50.862;4.696;2024-02-26T14:20:23;12.57;;;7.50;;
19869;SDS011;10097;50.862;4.696;2024-02-26T14:22:50;12.10;;;7.70;;
19869;SDS011;10097;50.862;4.696;2024-02-26T14:25:18;14.00;;;7.87;;
19869;SDS011;10097;50.862;4.696;2024-02-26T14:27:45;13.83;;;8.30;;
19869;SDS011;10097;50.862;4.696;2024-02-26T14:30:11;13.53;;;8.40;;
19869;SDS011;10097;50.862;4.696;2024-02-26T14:32:37;13.87;;;8.77;;
19869;SDS011;10097;50.862;4.696;2024-02-26T14:35:06;14.37;;;8.77;;
19869;SDS011;10097;50.862;4.696;2024-02-26T14:37:34;13.60;;;8.23;;
19869;SDS011;10097;50.862;4.696;2024-02-26T14:40:00;13.57;;;8.70;;
19869;SDS011;10097;50.862;4.696;2024-02-26T14:42:27;14.43;;;7.83;;
19869;SDS011;10097;50.862;4.696;2024-02-26T14:44:54;15.17;;;9.03;;